createdAt,value
2019-02-14T00:02:00.646Z,2.20
2019-02-14T00:07:04.851Z,2.30
2019-02-14T00:12:10.163Z,2.50
2019-02-14T00:17:14.334Z,2.50
2019-02-14T00:22:18.519Z,2.37
2019-02-14T00:27:22.685Z,2.30
2019-02-14T00:32:27.809Z,2.30
2019-02-14T00:37:33.231Z,2.10
2019-02-14T00:42:37.523Z,2.80
2019-02-14T00:47:41.697Z,2.60
2019-02-14T00:52:46.694Z,2.40
2019-02-14T00:57:50.933Z,2.40
2019-02-14T01:02:55.770Z,2.40
2019-02-14T01:07:59.945Z,2.67
2019-02-14T01:13:04.879Z,2.30
2019-02-14T01:18:09.043Z,2.50
2019-02-14T01:23:14.037Z,2.53
2019-02-14T01:28:18.287Z,2.80
2019-02-14T01:33:22.659Z,2.50
2019-02-14T01:38:29.294Z,2.40
2019-02-14T01:43:34.359Z,2.23
2019-02-14T01:48:38.551Z,2.60
2019-02-14T01:53:43.439Z,2.27
2019-02-14T01:58:47.606Z,2.70
2019-02-14T02:03:52.477Z,2.97
2019-02-14T02:08:56.996Z,3.07
2019-02-14T02:14:02.057Z,2.63
2019-02-14T02:19:06.189Z,2.93
2019-02-14T02:24:10.500Z,2.20
2019-02-14T02:29:14.662Z,2.73
2019-02-14T02:34:18.795Z,2.30
2019-02-14T02:39:23.756Z,2.70
2019-02-14T02:44:28.206Z,2.70
2019-02-14T02:49:32.348Z,2.97
2019-02-14T02:54:37.065Z,2.67
2019-02-14T02:59:41.217Z,2.83
2019-02-14T03:04:45.952Z,3.00
2019-02-14T03:09:50.094Z,2.90
2019-02-14T03:14:54.715Z,3.00
2019-02-14T03:19:58.864Z,3.00
2019-02-14T03:25:03.831Z,2.43
2019-02-14T03:30:08.303Z,2.77
2019-02-14T03:35:12.616Z,2.97
2019-02-14T03:40:16.773Z,2.70
2019-02-14T03:45:21.457Z,2.93
2019-02-14T03:50:25.604Z,2.40
2019-02-14T03:55:30.853Z,2.40
2019-02-14T04:00:35.083Z,2.67
2019-02-14T04:05:40.280Z,2.53
2019-02-14T04:10:44.435Z,2.90
2019-02-14T04:15:49.352Z,2.63
2019-02-14T04:20:53.550Z,2.70
2019-02-14T04:25:58.235Z,3.23
2019-02-14T04:31:02.492Z,2.70
2019-02-14T04:36:08.109Z,2.63
2019-02-14T04:41:12.330Z,2.73
2019-02-14T04:46:18.031Z,2.90
2019-02-14T04:51:22.303Z,3.03
2019-02-14T04:56:27.709Z,2.67
2019-02-14T05:01:31.899Z,2.63
2019-02-14T05:06:44.199Z,2.70
2019-02-14T05:11:43.412Z,2.70
2019-02-14T05:16:49.091Z,2.60
2019-02-14T05:21:53.291Z,2.53
2019-02-14T05:26:59.140Z,2.50
2019-02-14T05:32:03.325Z,2.60
2019-02-14T05:37:07.736Z,2.50
2019-02-14T05:42:11.976Z,2.93
2019-02-14T05:47:16.196Z,2.57
2019-02-14T05:52:20.393Z,2.60
2019-02-14T05:57:27.367Z,2.50
2019-02-14T06:02:32.242Z,2.80
2019-02-14T06:07:38.141Z,2.77
2019-02-14T06:12:42.418Z,2.37
2019-02-14T06:17:49.798Z,2.53
2019-02-14T06:22:54.049Z,2.40
2019-02-14T06:27:59.401Z,2.40
2019-02-14T06:33:03.697Z,2.63
2019-02-14T06:38:09.302Z,3.40
2019-02-14T06:43:13.542Z,2.60
2019-02-14T06:48:19.158Z,3.10
2019-02-14T06:53:23.337Z,3.07
2019-02-14T06:58:29.026Z,3.10
2019-02-14T07:03:33.237Z,2.57
2019-02-14T07:08:38.899Z,2.80
2019-02-14T07:13:43.079Z,2.80
2019-02-14T07:18:48.671Z,2.60
2019-02-14T07:23:53.570Z,2.80
2019-02-14T07:29:00.627Z,2.67
2019-02-14T07:34:05.109Z,4.57
2019-02-14T07:39:12.677Z,3.67
2019-02-14T07:44:16.923Z,3.77
2019-02-14T07:49:22.279Z,3.47
2019-02-14T07:54:26.510Z,4.03
2019-02-14T07:59:31.912Z,4.83
2019-02-14T08:04:36.165Z,4.40
2019-02-14T08:09:41.631Z,3.60
2019-02-14T08:14:45.869Z,3.70
2019-02-14T08:19:51.233Z,4.00
2019-02-14T08:24:55.541Z,3.67
2019-02-14T08:30:01.174Z,3.73
2019-02-14T08:35:06.585Z,3.40
2019-02-14T08:40:12.352Z,3.87
2019-02-14T08:45:16.536Z,4.20
2019-02-14T08:50:21.809Z,3.47
2019-02-14T08:55:26.070Z,4.80
2019-02-14T09:00:34.511Z,5.17
2019-02-14T09:05:38.756Z,5.57
2019-02-14T09:10:44.148Z,5.13
2019-02-14T09:15:48.348Z,6.10
2019-02-14T09:20:54.148Z,6.43
2019-02-14T09:25:58.463Z,6.23
2019-02-14T09:31:04.066Z,5.87
2019-02-14T09:36:08.286Z,6.37
2019-02-14T09:41:12.496Z,5.90
2019-02-14T09:46:16.791Z,6.37
2019-02-14T09:51:22.181Z,6.77
2019-02-14T09:56:26.580Z,6.00
2019-02-14T10:01:31.969Z,6.20
2019-02-14T10:06:37.073Z,7.77
2019-02-14T10:11:44.378Z,6.63
2019-02-14T10:16:48.609Z,8.40
2019-02-14T10:21:54.466Z,3.90
2019-02-14T10:26:58.660Z,4.73
2019-02-14T10:32:05.085Z,3.90
2019-02-14T10:37:10.067Z,5.13
2019-02-14T10:42:14.423Z,5.27
2019-02-14T10:47:18.935Z,7.63
2019-02-14T10:52:23.351Z,3.62
2019-02-14T10:57:27.610Z,7.10
2019-02-14T11:02:33.203Z,4.00
2019-02-14T11:07:37.441Z,5.37
2019-02-14T11:12:42.134Z,5.97
2019-02-14T11:17:46.348Z,5.28
2019-02-14T11:22:50.830Z,6.57
2019-02-14T11:27:55.084Z,4.22
2019-02-14T11:32:59.940Z,5.00
2019-02-14T11:38:04.282Z,6.15
2019-02-14T11:43:08.568Z,6.40
2019-02-14T11:48:12.830Z,4.72
2019-02-14T11:53:18.771Z,5.53
2019-02-14T11:58:22.943Z,3.62
2019-02-14T12:03:28.599Z,5.37
2019-02-14T12:08:32.815Z,4.08
2019-02-14T12:13:39.565Z,7.05
2019-02-14T12:18:45.764Z,6.42
2019-02-14T12:23:50.162Z,5.47
2019-02-14T12:28:56.921Z,2.83
2019-02-14T12:34:01.996Z,4.40
2019-02-14T12:39:09.847Z,6.20
2019-02-14T12:44:13.843Z,5.37
2019-02-14T12:49:18.786Z,6.03
2019-02-14T12:54:23.287Z,5.10
2019-02-14T12:59:27.928Z,6.53
2019-02-14T13:04:32.943Z,4.40
2019-02-14T13:09:37.706Z,5.23
2019-02-14T13:14:43.396Z,5.63
2019-02-14T13:19:49.437Z,5.57
2019-02-14T13:24:54.091Z,4.57
2019-02-14T13:29:58.591Z,5.97
2019-02-14T13:35:03.634Z,4.37
2019-02-14T13:40:08.109Z,5.13
2019-02-14T13:45:14.279Z,4.27
2019-02-14T13:50:18.747Z,5.60
2019-02-14T13:55:24.194Z,4.90
2019-02-14T14:00:28.684Z,5.23
2019-02-14T14:05:33.653Z,5.03
2019-02-14T14:10:38.143Z,5.37
2019-02-14T14:15:43.089Z,4.67
2019-02-14T14:20:47.654Z,5.40
2019-02-14T14:25:52.761Z,5.35
2019-02-14T14:30:57.328Z,7.67
2019-02-14T14:36:01.676Z,5.20
2019-02-14T14:41:05.863Z,5.55
2019-02-14T14:46:29.980Z,4.50
2019-02-14T14:51:34.281Z,5.17
2019-02-14T14:56:38.769Z,5.10
2019-02-14T15:01:43.305Z,4.87
2019-02-14T15:06:48.963Z,4.77
2019-02-14T15:11:53.173Z,4.85
2019-02-14T15:16:57.471Z,5.83
2019-02-14T15:22:01.694Z,3.85
2019-02-14T15:27:05.977Z,3.77
2019-02-14T15:32:10.279Z,3.30
2019-02-14T15:37:15.476Z,2.83
2019-02-14T15:42:21.136Z,3.60
2019-02-14T15:47:25.340Z,2.98
2019-02-14T15:52:32.136Z,3.10
2019-02-14T15:57:35.885Z,2.70
2019-02-14T16:02:40.422Z,2.60
2019-02-14T16:07:44.683Z,2.85
2019-02-14T16:12:48.884Z,2.45
2019-02-14T16:17:53.437Z,2.90
2019-02-14T16:22:57.954Z,2.90
2019-02-14T16:28:02.465Z,2.80
2019-02-14T16:33:07.003Z,2.83
2019-02-14T16:38:12.417Z,2.70
2019-02-14T16:43:17.562Z,2.47
2019-02-14T16:48:21.764Z,3.23
2019-02-14T16:53:26.032Z,2.83
2019-02-14T16:58:30.216Z,2.67
2019-02-14T17:03:36.830Z,2.83
2019-02-14T17:08:41.096Z,2.57
2019-02-14T17:13:45.332Z,2.83
2019-02-14T17:18:49.758Z,2.50
2019-02-14T17:23:54.355Z,2.77
2019-02-14T17:28:58.684Z,2.20
2019-02-14T17:34:03.075Z,2.63
2019-02-14T17:39:07.279Z,2.57
2019-02-14T17:44:11.742Z,2.47
2019-02-14T17:49:15.958Z,2.40
2019-02-14T17:54:20.238Z,2.73
2019-02-14T17:59:24.455Z,2.30
2019-02-14T18:04:28.673Z,2.00
2019-02-14T18:09:33.115Z,2.40
2019-02-14T18:14:37.399Z,2.40
2019-02-14T18:19:41.602Z,1.83
2019-02-14T18:24:48.971Z,1.87
2019-02-14T18:29:53.173Z,2.33
2019-02-14T18:34:57.553Z,2.37
2019-02-14T18:40:01.960Z,2.77
2019-02-14T18:45:08.259Z,2.80
2019-02-14T18:50:12.657Z,2.67
2019-02-14T18:55:18.363Z,2.53
2019-02-14T19:00:22.792Z,2.57
2019-02-14T19:05:27.107Z,2.63
2019-02-14T19:10:31.995Z,2.87
2019-02-14T19:15:37.152Z,2.63
2019-02-14T19:20:41.360Z,3.07
2019-02-14T19:25:46.376Z,2.70
2019-02-14T19:30:50.647Z,2.37
2019-02-14T19:35:55.828Z,2.90
2019-02-14T19:41:00.024Z,2.40
2019-02-14T19:46:04.299Z,2.57
2019-02-14T19:51:08.575Z,2.77
2019-02-14T19:56:14.996Z,2.50
2019-02-14T20:01:19.184Z,2.70
2019-02-14T20:06:23.987Z,3.13
2019-02-14T20:11:36.181Z,2.97
2019-02-14T20:16:35.207Z,2.57
2019-02-14T20:21:39.502Z,3.20
2019-02-14T20:26:45.860Z,3.20
2019-02-14T20:31:50.093Z,2.70
2019-02-14T20:36:54.433Z,2.80
2019-02-14T20:41:58.637Z,3.07
2019-02-14T20:47:02.973Z,2.80
2019-02-14T20:52:07.442Z,2.73
2019-02-14T20:57:11.866Z,3.30
2019-02-14T21:02:16.163Z,3.30
2019-02-14T21:07:20.436Z,3.40
2019-02-14T21:12:24.640Z,3.20
2019-02-14T21:17:29.130Z,3.00
2019-02-14T21:22:33.325Z,3.27
2019-02-14T21:27:39.001Z,3.03
2019-02-14T21:32:43.238Z,2.60
2019-02-14T21:37:48.111Z,3.23
2019-02-14T21:42:52.456Z,2.97
2019-02-14T21:47:56.815Z,3.33
2019-02-14T21:53:01.069Z,2.97
2019-02-14T21:58:06.459Z,2.80
2019-02-14T22:03:12.018Z,3.03
2019-02-14T22:08:16.191Z,3.03
2019-02-14T22:13:21.628Z,3.13
2019-02-14T22:18:26.236Z,3.10
2019-02-14T22:23:31.995Z,3.00
2019-02-14T22:28:36.162Z,3.13
2019-02-14T22:33:41.446Z,3.20
2019-02-14T22:38:45.628Z,2.90
2019-02-14T22:43:50.926Z,3.40
2019-02-14T22:48:55.113Z,3.07
2019-02-14T22:54:00.682Z,3.17
2019-02-14T22:59:04.875Z,3.60
2019-02-14T23:04:10.507Z,3.40
2019-02-14T23:09:15.154Z,3.40
2019-02-14T23:14:20.482Z,3.57
2019-02-14T23:19:24.746Z,3.33
2019-02-14T23:24:30.271Z,3.43
2019-02-14T23:29:34.479Z,3.37
2019-02-14T23:34:40.320Z,3.20
2019-02-14T23:39:44.570Z,3.37
2019-02-14T23:44:49.882Z,3.67
2019-02-14T23:49:54.073Z,3.43
2019-02-14T23:54:59.799Z,3.50
